sensor_id;sensor_type;location;lat;lon;timestamp;P1;durP1;ratioP1;P2;durP2;ratioP2
67757;SDS011;54562;47.620;18.786;2023-04-24T00:04:29;11.30;;;5.90;;
67757;SDS011;54562;47.620;18.786;2023-04-24T00:07:37;8.50;;;5.60;;
67757;SDS011;54562;47.620;18.786;2023-04-24T00:10:43;10.40;;;5.70;;
67757;SDS011;54562;47.620;18.786;2023-04-24T00:13:50;10.10;;;5.50;;
67757;SDS011;54562;47.620;18.786;2023-04-24T00:17:26;10.40;;;5.30;;
67757;SDS011;54562;47.620;18.786;2023-04-24T00:20:38;10.10;;;5.60;;
67757;SDS011;54562;47.620;18.786;2023-04-24T00:23:45;9.30;;;5.70;;
67757;SDS011;54562;47.620;18.786;2023-04-24T00:26:54;9.90;;;6.00;;
67757;SDS011;54562;47.620;18.786;2023-04-24T00:30:02;9.80;;;5.40;;
67757;SDS011;54562;47.620;18.786;2023-04-24T00:33:11;9.60;;;5.70;;
67757;SDS011;54562;47.620;18.786;2023-04-24T00:36:17;10.40;;;6.50;;
67757;SDS011;54562;47.620;18.786;2023-04-24T00:42:49;9.90;;;6.20;;
67757;SDS011;54562;47.620;18.786;2023-04-24T00:45:57;11.70;;;6.20;;
67757;SDS011;54562;47.620;18.786;2023-04-24T00:49:06;9.40;;;6.00;;
67757;SDS011;54562;47.620;18.786;2023-04-24T00:52:13;11.80;;;6.40;;
67757;SDS011;54562;47.620;18.786;2023-04-24T00:55:23;10.30;;;5.90;;
67757;SDS011;54562;47.620;18.786;2023-04-24T00:58:30;13.40;;;6.10;;
67757;SDS011;54562;47.620;18.786;2023-04-24T01:01:37;11.40;;;6.20;;
67757;SDS011;54562;47.620;18.786;2023-04-24T01:04:47;9.10;;;5.40;;
67757;SDS011;54562;47.620;18.786;2023-04-24T01:07:54;10.70;;;6.10;;
67757;SDS011;54562;47.620;18.786;2023-04-24T01:11:02;11.10;;;5.70;;
67757;SDS011;54562;47.620;18.786;2023-04-24T01:14:09;9.80;;;6.10;;
67757;SDS011;54562;47.620;18.786;2023-04-24T01:17:18;12.00;;;6.10;;
67757;SDS011;54562;47.620;18.786;2023-04-24T01:20:26;10.60;;;6.40;;
67757;SDS011;54562;47.620;18.786;2023-04-24T01:23:34;9.10;;;5.80;;
67757;SDS011;54562;47.620;18.786;2023-04-24T01:26:41;10.20;;;6.10;;
67757;SDS011;54562;47.620;18.786;2023-04-24T01:29:47;12.20;;;6.00;;
67757;SDS011;54562;47.620;18.786;2023-04-24T01:32:57;9.90;;;5.60;;
67757;SDS011;54562;47.620;18.786;2023-04-24T01:36:05;8.60;;;5.50;;
67757;SDS011;54562;47.620;18.786;2023-04-24T01:39:12;11.90;;;6.00;;
67757;SDS011;54562;47.620;18.786;2023-04-24T01:42:25;10.00;;;6.70;;
67757;SDS011;54562;47.620;18.786;2023-04-24T01:45:32;11.10;;;6.60;;
67757;SDS011;54562;47.620;18.786;2023-04-24T01:48:38;13.10;;;6.90;;
67757;SDS011;54562;47.620;18.786;2023-04-24T01:51:44;12.50;;;6.70;;
67757;SDS011;54562;47.620;18.786;2023-04-24T01:54:51;13.20;;;7.00;;
67757;SDS011;54562;47.620;18.786;2023-04-24T01:57:58;11.40;;;6.20;;
67757;SDS011;54562;47.620;18.786;2023-04-24T02:01:07;9.20;;;6.30;;
67757;SDS011;54562;47.620;18.786;2023-04-24T02:04:14;9.70;;;5.60;;
67757;SDS011;54562;47.620;18.786;2023-04-24T02:07:20;10.40;;;5.80;;
67757;SDS011;54562;47.620;18.786;2023-04-24T02:10:27;8.90;;;6.00;;
67757;SDS011;54562;47.620;18.786;2023-04-24T02:13:33;10.60;;;6.40;;
67757;SDS011;54562;47.620;18.786;2023-04-24T02:16:40;10.40;;;6.60;;
67757;SDS011;54562;47.620;18.786;2023-04-24T02:19:47;9.90;;;6.40;;
67757;SDS011;54562;47.620;18.786;2023-04-24T02:22:53;9.10;;;6.10;;
67757;SDS011;54562;47.620;18.786;2023-04-24T02:26:00;12.70;;;6.20;;
67757;SDS011;54562;47.620;18.786;2023-04-24T02:29:06;11.60;;;5.80;;
67757;SDS011;54562;47.620;18.786;2023-04-24T02:32:13;10.00;;;5.90;;
67757;SDS011;54562;47.620;18.786;2023-04-24T02:35:20;9.70;;;5.80;;
67757;SDS011;54562;47.620;18.786;2023-04-24T02:38:27;11.00;;;6.80;;
67757;SDS011;54562;47.620;18.786;2023-04-24T02:41:33;11.90;;;7.60;;
67757;SDS011;54562;47.620;18.786;2023-04-24T02:44:40;13.40;;;7.30;;
67757;SDS011;54562;47.620;18.786;2023-04-24T02:47:47;12.70;;;7.40;;
67757;SDS011;54562;47.620;18.786;2023-04-24T02:50:53;11.10;;;7.30;;
67757;SDS011;54562;47.620;18.786;2023-04-24T02:53:59;11.40;;;7.50;;
67757;SDS011;54562;47.620;18.786;2023-04-24T02:57:06;9.20;;;6.60;;
67757;SDS011;54562;47.620;18.786;2023-04-24T03:00:14;11.30;;;7.10;;
67757;SDS011;54562;47.620;18.786;2023-04-24T03:03:20;12.80;;;7.30;;
67757;SDS011;54562;47.620;18.786;2023-04-24T03:06:27;12.80;;;7.50;;
67757;SDS011;54562;47.620;18.786;2023-04-24T03:09:33;12.40;;;7.40;;
67757;SDS011;54562;47.620;18.786;2023-04-24T03:12:39;10.40;;;7.20;;
67757;SDS011;54562;47.620;18.786;2023-04-24T03:15:46;11.60;;;7.30;;
67757;SDS011;54562;47.620;18.786;2023-04-24T03:18:52;11.90;;;7.20;;
67757;SDS011;54562;47.620;18.786;2023-04-24T03:21:58;11.60;;;7.40;;
67757;SDS011;54562;47.620;18.786;2023-04-24T03:25:06;10.70;;;7.30;;
67757;SDS011;54562;47.620;18.786;2023-04-24T03:28:19;12.90;;;7.50;;
67757;SDS011;54562;47.620;18.786;2023-04-24T03:31:26;11.30;;;7.60;;
67757;SDS011;54562;47.620;18.786;2023-04-24T03:34:32;12.30;;;8.00;;
67757;SDS011;54562;47.620;18.786;2023-04-24T03:37:38;11.60;;;7.10;;
67757;SDS011;54562;47.620;18.786;2023-04-24T03:40:45;11.80;;;7.40;;
67757;SDS011;54562;47.620;18.786;2023-04-24T03:43:51;12.70;;;7.50;;
67757;SDS011;54562;47.620;18.786;2023-04-24T03:46:59;13.60;;;7.90;;
67757;SDS011;54562;47.620;18.786;2023-04-24T03:50:06;13.00;;;7.70;;
67757;SDS011;54562;47.620;18.786;2023-04-24T03:53:15;12.00;;;7.70;;
67757;SDS011;54562;47.620;18.786;2023-04-24T03:56:22;11.80;;;8.10;;
67757;SDS011;54562;47.620;18.786;2023-04-24T03:59:28;11.60;;;8.00;;
67757;SDS011;54562;47.620;18.786;2023-04-24T04:02:34;13.80;;;7.90;;
67757;SDS011;54562;47.620;18.786;2023-04-24T04:05:41;12.20;;;7.80;;
67757;SDS011;54562;47.620;18.786;2023-04-24T04:08:48;12.90;;;7.70;;
67757;SDS011;54562;47.620;18.786;2023-04-24T04:11:54;13.90;;;8.20;;
67757;SDS011;54562;47.620;18.786;2023-04-24T04:15:00;10.30;;;7.40;;
67757;SDS011;54562;47.620;18.786;2023-04-24T04:18:07;12.60;;;8.00;;
67757;SDS011;54562;47.620;18.786;2023-04-24T04:21:14;12.00;;;6.70;;
67757;SDS011;54562;47.620;18.786;2023-04-24T04:24:21;12.70;;;5.80;;
67757;SDS011;54562;47.620;18.786;2023-04-24T04:27:29;15.00;;;8.00;;
67757;SDS011;54562;47.620;18.786;2023-04-24T04:30:36;12.40;;;7.90;;
67757;SDS011;54562;47.620;18.786;2023-04-24T04:33:43;13.80;;;7.70;;
67757;SDS011;54562;47.620;18.786;2023-04-24T04:36:49;14.20;;;7.50;;
67757;SDS011;54562;47.620;18.786;2023-04-24T04:39:56;11.70;;;8.50;;
67757;SDS011;54562;47.620;18.786;2023-04-24T04:43:03;12.70;;;8.20;;
67757;SDS011;54562;47.620;18.786;2023-04-24T04:46:11;12.80;;;8.60;;
67757;SDS011;54562;47.620;18.786;2023-04-24T04:49:18;12.90;;;8.00;;
67757;SDS011;54562;47.620;18.786;2023-04-24T04:52:26;13.40;;;8.10;;
67757;SDS011;54562;47.620;18.786;2023-04-24T04:55:33;13.20;;;8.20;;
67757;SDS011;54562;47.620;18.786;2023-04-24T04:58:39;12.50;;;8.20;;
67757;SDS011;54562;47.620;18.786;2023-04-24T05:04:54;14.70;;;8.60;;
67757;SDS011;54562;47.620;18.786;2023-04-24T05:08:01;12.50;;;8.50;;
67757;SDS011;54562;47.620;18.786;2023-04-24T05:14:13;13.40;;;9.00;;
67757;SDS011;54562;47.620;18.786;2023-04-24T05:17:19;14.40;;;9.60;;
67757;SDS011;54562;47.620;18.786;2023-04-24T05:20:26;13.00;;;8.70;;
67757;SDS011;54562;47.620;18.786;2023-04-24T05:23:33;12.40;;;8.80;;
67757;SDS011;54562;47.620;18.786;2023-04-24T05:26:39;14.10;;;9.20;;
67757;SDS011;54562;47.620;18.786;2023-04-24T05:29:45;12.50;;;8.70;;
67757;SDS011;54562;47.620;18.786;2023-04-24T05:32:51;13.20;;;8.70;;
67757;SDS011;54562;47.620;18.786;2023-04-24T05:35:58;12.80;;;8.40;;
67757;SDS011;54562;47.620;18.786;2023-04-24T05:39:04;12.90;;;8.50;;
67757;SDS011;54562;47.620;18.786;2023-04-24T05:42:12;13.10;;;8.10;;
67757;SDS011;54562;47.620;18.786;2023-04-24T05:45:18;13.10;;;8.10;;
67757;SDS011;54562;47.620;18.786;2023-04-24T05:48:27;13.40;;;8.10;;
67757;SDS011;54562;47.620;18.786;2023-04-24T05:51:42;13.50;;;8.90;;
67757;SDS011;54562;47.620;18.786;2023-04-24T05:54:49;15.40;;;9.30;;
67757;SDS011;54562;47.620;18.786;2023-04-24T05:57:56;14.70;;;9.00;;
67757;SDS011;54562;47.620;18.786;2023-04-24T06:01:02;13.70;;;9.00;;
67757;SDS011;54562;47.620;18.786;2023-04-24T06:04:08;15.10;;;9.30;;
67757;SDS011;54562;47.620;18.786;2023-04-24T06:07:15;15.20;;;8.50;;
67757;SDS011;54562;47.620;18.786;2023-04-24T06:10:21;15.70;;;9.20;;
67757;SDS011;54562;47.620;18.786;2023-04-24T06:13:28;12.60;;;8.00;;
67757;SDS011;54562;47.620;18.786;2023-04-24T06:16:34;13.10;;;8.00;;
67757;SDS011;54562;47.620;18.786;2023-04-24T06:19:40;12.30;;;7.80;;
67757;SDS011;54562;47.620;18.786;2023-04-24T06:22:47;12.30;;;8.00;;
67757;SDS011;54562;47.620;18.786;2023-04-24T06:25:53;14.70;;;8.00;;
67757;SDS011;54562;47.620;18.786;2023-04-24T06:28:59;12.70;;;8.70;;
67757;SDS011;54562;47.620;18.786;2023-04-24T06:32:05;11.90;;;8.40;;
67757;SDS011;54562;47.620;18.786;2023-04-24T06:35:12;14.90;;;8.10;;
67757;SDS011;54562;47.620;18.786;2023-04-24T06:38:19;12.10;;;8.20;;
67757;SDS011;54562;47.620;18.786;2023-04-24T06:41:25;13.10;;;8.00;;
67757;SDS011;54562;47.620;18.786;2023-04-24T06:44:31;13.50;;;8.00;;
67757;SDS011;54562;47.620;18.786;2023-04-24T06:47:42;18.40;;;8.90;;
67757;SDS011;54562;47.620;18.786;2023-04-24T06:50:49;21.10;;;9.00;;
67757;SDS011;54562;47.620;18.786;2023-04-24T06:53:56;15.40;;;8.60;;
67757;SDS011;54562;47.620;18.786;2023-04-24T06:57:02;12.40;;;8.20;;
67757;SDS011;54562;47.620;18.786;2023-04-24T07:00:11;13.60;;;8.50;;
67757;SDS011;54562;47.620;18.786;2023-04-24T07:03:18;13.30;;;8.50;;
67757;SDS011;54562;47.620;18.786;2023-04-24T07:06:24;14.40;;;7.50;;
67757;SDS011;54562;47.620;18.786;2023-04-24T07:09:32;11.30;;;7.50;;
67757;SDS011;54562;47.620;18.786;2023-04-24T07:12:42;14.30;;;7.50;;
67757;SDS011;54562;47.620;18.786;2023-04-24T07:15:50;12.80;;;7.50;;
67757;SDS011;54562;47.620;18.786;2023-04-24T07:18:59;14.60;;;7.90;;
67757;SDS011;54562;47.620;18.786;2023-04-24T07:22:06;11.60;;;7.30;;
67757;SDS011;54562;47.620;18.786;2023-04-24T07:25:12;12.60;;;7.70;;
67757;SDS011;54562;47.620;18.786;2023-04-24T07:28:19;11.60;;;7.40;;
67757;SDS011;54562;47.620;18.786;2023-04-24T07:31:26;13.40;;;7.40;;
67757;SDS011;54562;47.620;18.786;2023-04-24T07:34:34;11.90;;;7.50;;
67757;SDS011;54562;47.620;18.786;2023-04-24T07:37:45;10.70;;;7.30;;
67757;SDS011;54562;47.620;18.786;2023-04-24T07:40:53;14.50;;;7.50;;
67757;SDS011;54562;47.620;18.786;2023-04-24T07:44:00;12.80;;;7.20;;
67757;SDS011;54562;47.620;18.786;2023-04-24T07:47:07;13.90;;;8.00;;
67757;SDS011;54562;47.620;18.786;2023-04-24T07:50:14;11.10;;;7.10;;
67757;SDS011;54562;47.620;18.786;2023-04-24T07:53:21;13.10;;;7.70;;
67757;SDS011;54562;47.620;18.786;2023-04-24T07:56:27;11.00;;;7.50;;
67757;SDS011;54562;47.620;18.786;2023-04-24T07:59:36;11.40;;;7.60;;
67757;SDS011;54562;47.620;18.786;2023-04-24T08:02:42;13.20;;;7.60;;
67757;SDS011;54562;47.620;18.786;2023-04-24T08:05:48;11.10;;;7.00;;
67757;SDS011;54562;47.620;18.786;2023-04-24T08:08:56;10.70;;;7.00;;
67757;SDS011;54562;47.620;18.786;2023-04-24T08:12:02;10.60;;;6.80;;
67757;SDS011;54562;47.620;18.786;2023-04-24T08:15:10;9.10;;;6.50;;
67757;SDS011;54562;47.620;18.786;2023-04-24T08:18:19;11.50;;;6.20;;
67757;SDS011;54562;47.620;18.786;2023-04-24T08:21:26;8.70;;;5.30;;
67757;SDS011;54562;47.620;18.786;2023-04-24T08:24:32;11.50;;;5.90;;
67757;SDS011;54562;47.620;18.786;2023-04-24T08:27:39;9.10;;;5.80;;
67757;SDS011;54562;47.620;18.786;2023-04-24T08:30:45;9.80;;;5.90;;
67757;SDS011;54562;47.620;18.786;2023-04-24T08:33:52;9.00;;;5.50;;
67757;SDS011;54562;47.620;18.786;2023-04-24T08:36:58;8.80;;;5.10;;
67757;SDS011;54562;47.620;18.786;2023-04-24T08:40:10;11.10;;;5.70;;
67757;SDS011;54562;47.620;18.786;2023-04-24T08:43:19;12.40;;;6.60;;
67757;SDS011;54562;47.620;18.786;2023-04-24T08:46:27;12.30;;;6.30;;
67757;SDS011;54562;47.620;18.786;2023-04-24T08:49:35;9.70;;;6.00;;
67757;SDS011;54562;47.620;18.786;2023-04-24T08:52:45;9.70;;;5.40;;
67757;SDS011;54562;47.620;18.786;2023-04-24T08:55:52;9.60;;;6.30;;
67757;SDS011;54562;47.620;18.786;2023-04-24T08:59:00;10.70;;;6.30;;
67757;SDS011;54562;47.620;18.786;2023-04-24T09:02:08;10.20;;;6.20;;
67757;SDS011;54562;47.620;18.786;2023-04-24T09:08:25;11.30;;;5.70;;
67757;SDS011;54562;47.620;18.786;2023-04-24T09:11:32;11.90;;;6.10;;
67757;SDS011;54562;47.620;18.786;2023-04-24T09:14:39;10.00;;;6.10;;
67757;SDS011;54562;47.620;18.786;2023-04-24T09:17:50;10.60;;;6.60;;
67757;SDS011;54562;47.620;18.786;2023-04-24T09:21:01;11.10;;;6.10;;
67757;SDS011;54562;47.620;18.786;2023-04-24T09:24:15;11.00;;;6.90;;
67757;SDS011;54562;47.620;18.786;2023-04-24T09:27:24;9.40;;;6.10;;
67757;SDS011;54562;47.620;18.786;2023-04-24T09:30:31;9.80;;;6.60;;
67757;SDS011;54562;47.620;18.786;2023-04-24T09:33:38;9.90;;;6.40;;
67757;SDS011;54562;47.620;18.786;2023-04-24T09:36:44;13.20;;;6.90;;
67757;SDS011;54562;47.620;18.786;2023-04-24T09:40:08;13.00;;;7.20;;
67757;SDS011;54562;47.620;18.786;2023-04-24T09:43:15;12.00;;;7.20;;
67757;SDS011;54562;47.620;18.786;2023-04-24T09:46:28;13.00;;;7.20;;
67757;SDS011;54562;47.620;18.786;2023-04-24T09:49:35;11.90;;;7.30;;
67757;SDS011;54562;47.620;18.786;2023-04-24T09:52:45;12.30;;;8.20;;
67757;SDS011;54562;47.620;18.786;2023-04-24T09:55:51;11.50;;;8.10;;
67757;SDS011;54562;47.620;18.786;2023-04-24T09:59:06;12.80;;;8.10;;
67757;SDS011;54562;47.620;18.786;2023-04-24T10:02:20;13.60;;;8.20;;
67757;SDS011;54562;47.620;18.786;2023-04-24T10:05:29;13.50;;;7.90;;
67757;SDS011;54562;47.620;18.786;2023-04-24T10:08:36;13.50;;;8.50;;
67757;SDS011;54562;47.620;18.786;2023-04-24T10:11:47;13.70;;;8.90;;
67757;SDS011;54562;47.620;18.786;2023-04-24T10:14:54;14.60;;;7.90;;
67757;SDS011;54562;47.620;18.786;2023-04-24T10:18:01;13.40;;;8.80;;
67757;SDS011;54562;47.620;18.786;2023-04-24T10:21:08;12.30;;;8.00;;
67757;SDS011;54562;47.620;18.786;2023-04-24T10:24:15;13.60;;;8.50;;
67757;SDS011;54562;47.620;18.786;2023-04-24T10:27:21;13.40;;;8.30;;
67757;SDS011;54562;47.620;18.786;2023-04-24T10:30:30;12.90;;;8.70;;
67757;SDS011;54562;47.620;18.786;2023-04-24T10:33:41;11.80;;;8.10;;
67757;SDS011;54562;47.620;18.786;2023-04-24T10:36:52;12.30;;;8.40;;
67757;SDS011;54562;47.620;18.786;2023-04-24T10:40:02;12.30;;;8.60;;
67757;SDS011;54562;47.620;18.786;2023-04-24T10:43:10;13.70;;;9.10;;
67757;SDS011;54562;47.620;18.786;2023-04-24T10:46:22;16.90;;;10.20;;
67757;SDS011;54562;47.620;18.786;2023-04-24T10:49:32;15.50;;;9.90;;
67757;SDS011;54562;47.620;18.786;2023-04-24T10:52:48;14.90;;;9.80;;
67757;SDS011;54562;47.620;18.786;2023-04-24T10:56:02;18.40;;;9.70;;
67757;SDS011;54562;47.620;18.786;2023-04-24T10:59:09;15.80;;;10.10;;
67757;SDS011;54562;47.620;18.786;2023-04-24T11:02:17;15.70;;;10.00;;
67757;SDS011;54562;47.620;18.786;2023-04-24T11:05:48;15.00;;;10.20;;
67757;SDS011;54562;47.620;18.786;2023-04-24T11:08:50;16.00;;;9.70;;
67757;SDS011;54562;47.620;18.786;2023-04-24T11:12:06;18.40;;;8.40;;
67757;SDS011;54562;47.620;18.786;2023-04-24T11:15:14;16.40;;;9.20;;
67757;SDS011;54562;47.620;18.786;2023-04-24T11:18:24;12.90;;;8.80;;
67757;SDS011;54562;47.620;18.786;2023-04-24T11:21:42;13.80;;;9.00;;
67757;SDS011;54562;47.620;18.786;2023-04-24T11:24:53;13.60;;;8.80;;
67757;SDS011;54562;47.620;18.786;2023-04-24T11:28:06;11.50;;;8.00;;
67757;SDS011;54562;47.620;18.786;2023-04-24T11:31:40;10.50;;;6.60;;
67757;SDS011;54562;47.620;18.786;2023-04-24T11:34:49;8.90;;;4.80;;
67757;SDS011;54562;47.620;18.786;2023-04-24T11:37:55;10.00;;;5.30;;
67757;SDS011;54562;47.620;18.786;2023-04-24T11:41:06;8.30;;;4.30;;
67757;SDS011;54562;47.620;18.786;2023-04-24T11:44:13;6.80;;;3.70;;
67757;SDS011;54562;47.620;18.786;2023-04-24T11:47:19;7.10;;;3.80;;
67757;SDS011;54562;47.620;18.786;2023-04-24T11:50:27;9.60;;;4.10;;
67757;SDS011;54562;47.620;18.786;2023-04-24T11:53:34;7.70;;;3.90;;
67757;SDS011;54562;47.620;18.786;2023-04-24T11:56:46;9.30;;;3.50;;
67757;SDS011;54562;47.620;18.786;2023-04-24T11:59:52;8.50;;;4.00;;
67757;SDS011;54562;47.620;18.786;2023-04-24T12:03:07;8.70;;;3.90;;
67757;SDS011;54562;47.620;18.786;2023-04-24T12:06:15;8.40;;;3.80;;
67757;SDS011;54562;47.620;18.786;2023-04-24T12:09:22;7.80;;;3.70;;
67757;SDS011;54562;47.620;18.786;2023-04-24T12:12:28;6.60;;;3.90;;
67757;SDS011;54562;47.620;18.786;2023-04-24T12:15:35;8.60;;;4.20;;
67757;SDS011;54562;47.620;18.786;2023-04-24T12:18:46;9.20;;;3.90;;
67757;SDS011;54562;47.620;18.786;2023-04-24T12:22:03;8.90;;;4.20;;
67757;SDS011;54562;47.620;18.786;2023-04-24T12:25:12;8.10;;;4.10;;
67757;SDS011;54562;47.620;18.786;2023-04-24T12:28:18;8.40;;;4.90;;
67757;SDS011;54562;47.620;18.786;2023-04-24T12:31:24;17.80;;;8.70;;
67757;SDS011;54562;47.620;18.786;2023-04-24T12:34:32;8.70;;;5.00;;
67757;SDS011;54562;47.620;18.786;2023-04-24T12:37:41;8.80;;;4.60;;
67757;SDS011;54562;47.620;18.786;2023-04-24T12:41:02;8.00;;;4.80;;
67757;SDS011;54562;47.620;18.786;2023-04-24T12:44:12;8.20;;;4.20;;
67757;SDS011;54562;47.620;18.786;2023-04-24T12:47:20;9.70;;;4.80;;
67757;SDS011;54562;47.620;18.786;2023-04-24T12:50:26;10.70;;;4.40;;
67757;SDS011;54562;47.620;18.786;2023-04-24T12:53:33;7.40;;;4.20;;
67757;SDS011;54562;47.620;18.786;2023-04-24T12:56:39;9.10;;;5.00;;
67757;SDS011;54562;47.620;18.786;2023-04-24T12:59:46;8.50;;;5.20;;
67757;SDS011;54562;47.620;18.786;2023-04-24T13:02:52;9.30;;;5.70;;
67757;SDS011;54562;47.620;18.786;2023-04-24T13:05:59;9.20;;;5.50;;
67757;SDS011;54562;47.620;18.786;2023-04-24T13:09:06;9.20;;;5.80;;
67757;SDS011;54562;47.620;18.786;2023-04-24T13:12:13;10.40;;;6.00;;
67757;SDS011;54562;47.620;18.786;2023-04-24T13:15:19;10.00;;;6.50;;
67757;SDS011;54562;47.620;18.786;2023-04-24T13:18:26;10.90;;;6.80;;
67757;SDS011;54562;47.620;18.786;2023-04-24T13:21:32;9.60;;;6.30;;
67757;SDS011;54562;47.620;18.786;2023-04-24T13:24:39;9.30;;;6.50;;
67757;SDS011;54562;47.620;18.786;2023-04-24T13:27:46;9.10;;;6.50;;
67757;SDS011;54562;47.620;18.786;2023-04-24T13:30:53;9.20;;;5.90;;
67757;SDS011;54562;47.620;18.786;2023-04-24T13:34:00;10.70;;;6.50;;
67757;SDS011;54562;47.620;18.786;2023-04-24T13:37:07;11.20;;;6.40;;
67757;SDS011;54562;47.620;18.786;2023-04-24T13:40:14;10.10;;;6.30;;
67757;SDS011;54562;47.620;18.786;2023-04-24T13:43:20;9.30;;;6.30;;
67757;SDS011;54562;47.620;18.786;2023-04-24T13:46:27;10.60;;;6.30;;
67757;SDS011;54562;47.620;18.786;2023-04-24T13:49:33;11.00;;;7.00;;
67757;SDS011;54562;47.620;18.786;2023-04-24T13:52:39;10.40;;;7.00;;
67757;SDS011;54562;47.620;18.786;2023-04-24T13:55:46;8.90;;;5.60;;
67757;SDS011;54562;47.620;18.786;2023-04-24T13:58:52;9.00;;;5.90;;
67757;SDS011;54562;47.620;18.786;2023-04-24T14:01:59;9.20;;;5.40;;
67757;SDS011;54562;47.620;18.786;2023-04-24T14:05:06;8.10;;;5.20;;
67757;SDS011;54562;47.620;18.786;2023-04-24T14:08:16;9.50;;;5.30;;
67757;SDS011;54562;47.620;18.786;2023-04-24T14:11:22;8.50;;;5.30;;
67757;SDS011;54562;47.620;18.786;2023-04-24T14:14:28;8.80;;;6.10;;
67757;SDS011;54562;47.620;18.786;2023-04-24T14:17:35;7.90;;;5.40;;
67757;SDS011;54562;47.620;18.786;2023-04-24T14:20:41;7.60;;;5.00;;
67757;SDS011;54562;47.620;18.786;2023-04-24T14:23:48;12.50;;;6.90;;
67757;SDS011;54562;47.620;18.786;2023-04-24T14:26:55;8.90;;;5.50;;
67757;SDS011;54562;47.620;18.786;2023-04-24T14:30:03;9.20;;;5.50;;
67757;SDS011;54562;47.620;18.786;2023-04-24T14:36:17;10.10;;;5.60;;
67757;SDS011;54562;47.620;18.786;2023-04-24T14:39:24;10.50;;;6.00;;
67757;SDS011;54562;47.620;18.786;2023-04-24T14:42:30;10.20;;;5.40;;
67757;SDS011;54562;47.620;18.786;2023-04-24T14:45:37;8.10;;;5.30;;
67757;SDS011;54562;47.620;18.786;2023-04-24T14:48:45;14.40;;;8.30;;
67757;SDS011;54562;47.620;18.786;2023-04-24T14:51:53;10.20;;;6.00;;
67757;SDS011;54562;47.620;18.786;2023-04-24T14:55:00;9.80;;;5.70;;
67757;SDS011;54562;47.620;18.786;2023-04-24T14:58:07;12.20;;;6.10;;
67757;SDS011;54562;47.620;18.786;2023-04-24T15:01:13;9.90;;;6.30;;
67757;SDS011;54562;47.620;18.786;2023-04-24T15:04:23;9.00;;;5.90;;
67757;SDS011;54562;47.620;18.786;2023-04-24T15:07:30;8.90;;;6.00;;
67757;SDS011;54562;47.620;18.786;2023-04-24T15:10:37;8.20;;;5.40;;
67757;SDS011;54562;47.620;18.786;2023-04-24T15:13:44;8.40;;;5.40;;
67757;SDS011;54562;47.620;18.786;2023-04-24T15:16:51;9.60;;;5.70;;
67757;SDS011;54562;47.620;18.786;2023-04-24T15:19:58;10.70;;;5.40;;
67757;SDS011;54562;47.620;18.786;2023-04-24T15:23:07;8.30;;;5.80;;
67757;SDS011;54562;47.620;18.786;2023-04-24T15:26:13;9.90;;;6.30;;
67757;SDS011;54562;47.620;18.786;2023-04-24T15:29:43;9.30;;;5.80;;
67757;SDS011;54562;47.620;18.786;2023-04-24T15:32:53;9.40;;;6.40;;
67757;SDS011;54562;47.620;18.786;2023-04-24T15:36:00;9.20;;;6.80;;
67757;SDS011;54562;47.620;18.786;2023-04-24T15:39:06;10.00;;;6.60;;
67757;SDS011;54562;47.620;18.786;2023-04-24T15:42:23;11.10;;;7.50;;
67757;SDS011;54562;47.620;18.786;2023-04-24T15:45:30;9.20;;;6.50;;
67757;SDS011;54562;47.620;18.786;2023-04-24T15:48:37;8.70;;;6.10;;
67757;SDS011;54562;47.620;18.786;2023-04-24T15:51:46;9.10;;;6.40;;
67757;SDS011;54562;47.620;18.786;2023-04-24T15:54:54;10.50;;;6.10;;
67757;SDS011;54562;47.620;18.786;2023-04-24T15:58:04;9.40;;;5.80;;
67757;SDS011;54562;47.620;18.786;2023-04-24T16:01:12;10.10;;;5.90;;
67757;SDS011;54562;47.620;18.786;2023-04-24T16:04:19;8.80;;;6.00;;
67757;SDS011;54562;47.620;18.786;2023-04-24T16:07:25;9.10;;;6.50;;
67757;SDS011;54562;47.620;18.786;2023-04-24T16:10:32;12.20;;;6.70;;
67757;SDS011;54562;47.620;18.786;2023-04-24T16:13:39;9.20;;;6.40;;
67757;SDS011;54562;47.620;18.786;2023-04-24T16:16:45;10.80;;;6.70;;
67757;SDS011;54562;47.620;18.786;2023-04-24T16:19:52;8.60;;;6.00;;
67757;SDS011;54562;47.620;18.786;2023-04-24T16:22:58;9.10;;;6.00;;
67757;SDS011;54562;47.620;18.786;2023-04-24T16:26:05;9.90;;;6.70;;
67757;SDS011;54562;47.620;18.786;2023-04-24T16:29:12;9.30;;;6.50;;
67757;SDS011;54562;47.620;18.786;2023-04-24T16:32:19;9.60;;;6.50;;
67757;SDS011;54562;47.620;18.786;2023-04-24T16:35:26;9.80;;;5.70;;
67757;SDS011;54562;47.620;18.786;2023-04-24T16:41:58;8.60;;;4.80;;
67757;SDS011;54562;47.620;18.786;2023-04-24T16:45:08;8.80;;;4.70;;
67757;SDS011;54562;47.620;18.786;2023-04-24T16:48:15;7.30;;;4.30;;
67757;SDS011;54562;47.620;18.786;2023-04-24T16:51:24;6.30;;;3.50;;
67757;SDS011;54562;47.620;18.786;2023-04-24T16:54:30;7.50;;;3.60;;
67757;SDS011;54562;47.620;18.786;2023-04-24T17:01:26;6.00;;;3.10;;
67757;SDS011;54562;47.620;18.786;2023-04-24T17:04:33;6.70;;;3.50;;
67757;SDS011;54562;47.620;18.786;2023-04-24T17:07:41;7.80;;;3.40;;
67757;SDS011;54562;47.620;18.786;2023-04-24T17:10:48;5.60;;;3.10;;
67757;SDS011;54562;47.620;18.786;2023-04-24T17:14:22;5.50;;;2.90;;
67757;SDS011;54562;47.620;18.786;2023-04-24T17:17:30;6.50;;;3.50;;
67757;SDS011;54562;47.620;18.786;2023-04-24T17:20:36;8.40;;;3.90;;
67757;SDS011;54562;47.620;18.786;2023-04-24T17:23:43;7.80;;;4.50;;
67757;SDS011;54562;47.620;18.786;2023-04-24T17:26:49;16.30;;;6.00;;
67757;SDS011;54562;47.620;18.786;2023-04-24T17:30:00;7.30;;;4.10;;
67757;SDS011;54562;47.620;18.786;2023-04-24T17:33:06;7.90;;;4.00;;
67757;SDS011;54562;47.620;18.786;2023-04-24T17:36:13;7.90;;;3.60;;
67757;SDS011;54562;47.620;18.786;2023-04-24T17:39:20;6.50;;;3.50;;
67757;SDS011;54562;47.620;18.786;2023-04-24T17:42:26;6.90;;;3.50;;
67757;SDS011;54562;47.620;18.786;2023-04-24T17:48:37;6.80;;;3.20;;
67757;SDS011;54562;47.620;18.786;2023-04-24T17:51:44;5.90;;;2.80;;
67757;SDS011;54562;47.620;18.786;2023-04-24T17:54:50;6.40;;;2.90;;
67757;SDS011;54562;47.620;18.786;2023-04-24T17:57:56;6.30;;;2.70;;
67757;SDS011;54562;47.620;18.786;2023-04-24T18:01:03;7.60;;;3.20;;
67757;SDS011;54562;47.620;18.786;2023-04-24T18:04:09;6.00;;;3.00;;
67757;SDS011;54562;47.620;18.786;2023-04-24T18:07:16;6.00;;;3.10;;
67757;SDS011;54562;47.620;18.786;2023-04-24T18:10:22;6.40;;;3.00;;
67757;SDS011;54562;47.620;18.786;2023-04-24T18:13:30;6.90;;;2.90;;
67757;SDS011;54562;47.620;18.786;2023-04-24T18:16:36;5.70;;;2.70;;
67757;SDS011;54562;47.620;18.786;2023-04-24T18:19:42;6.40;;;2.70;;
67757;SDS011;54562;47.620;18.786;2023-04-24T18:22:54;6.40;;;3.20;;
67757;SDS011;54562;47.620;18.786;2023-04-24T18:26:01;6.60;;;3.00;;
67757;SDS011;54562;47.620;18.786;2023-04-24T18:29:07;6.20;;;3.00;;
67757;SDS011;54562;47.620;18.786;2023-04-24T18:32:15;8.50;;;4.30;;
67757;SDS011;54562;47.620;18.786;2023-04-24T18:35:21;9.50;;;4.60;;
67757;SDS011;54562;47.620;18.786;2023-04-24T18:38:28;7.10;;;3.30;;
67757;SDS011;54562;47.620;18.786;2023-04-24T18:41:34;5.90;;;2.90;;
67757;SDS011;54562;47.620;18.786;2023-04-24T18:44:41;7.60;;;3.20;;
67757;SDS011;54562;47.620;18.786;2023-04-24T18:47:48;8.70;;;3.80;;
67757;SDS011;54562;47.620;18.786;2023-04-24T18:50:54;7.40;;;3.30;;
67757;SDS011;54562;47.620;18.786;2023-04-24T18:54:02;6.20;;;2.90;;